Perry, Georgia
Current Conditions -  °F | °C
As of 5:15 AM on Saturday 20 Dec 2014 (Local Time) from KPXE Reporting Station
Drizzle Drizzle  
Wind Chill: 49°   Ceiling: 5000
Heat Index: 49°   Visibility: 7mi
Dew Point: 45°   Wind: 3mph
Humidity: 86%   Direction: 30°NNE
Pressure: 30.13"   Gusts: NA
Location:  32.46°N, 83.73°W
Report Text: KPXE 201015Z AUTO 03003KT 7SM DZ OVC050 09/07 A3013 RMK AO2 T00920070
Loading
Personal Weather Stations






























Interactive Weather Map New forecast layout! Learn more

10-Day Weather Forecast

Advertisements
Track Severe Weather on mobile